Time;durP1;ratioP1;P1;durP2;ratioP2;P2;SDS_P1;SDS_P2;PMS_P1;PMS_P2;Temp;Humidity;BMP_temperature;BMP_pressure;BME280_temperature;BME280_humidity;BME280_pressure;Samples;Min_cycle;Max_cycle;Signal;HPM_P1;HPM_P2
2022/06/28 00:02:20;;;;;;;15.75;12.68;;;12.80;99.90;;;;;;5115967;27;20137;-72
2022/06/28 00:04:47;;;;;;;16.60;12.88;;;12.80;99.90;;;;;;5134182;27;20517;-73
2022/06/28 00:07:14;;;;;;;16.80;12.07;;;12.70;99.90;;;;;;5115714;27;20096;-73
2022/06/28 00:09:41;;;;;;;15.40;12.30;;;12.70;99.90;;;;;;5154617;27;20039;-72
2022/06/28 00:12:08;;;;;;;17.80;13.43;;;12.70;99.90;;;;;;5154878;27;20050;-72
2022/06/28 00:17:21;;;;;;;17.45;12.60;;;12.60;99.90;;;;;;5154394;27;20134;-73
2022/06/28 00:19:48;;;;;;;18.75;12.48;;;12.60;99.90;;;;;;5153987;27;20483;-73
2022/06/28 00:22:15;;;;;;;19.90;13.48;;;12.50;99.90;;;;;;5136243;27;20091;-74
2022/06/28 00:24:42;;;;;;;16.10;12.52;;;12.50;99.90;;;;;;5132364;28;20054;-72
2022/06/28 00:27:09;;;;;;;15.95;13.20;;;12.40;99.90;;;;;;5115291;28;20055;-73
2022/06/28 00:29:37;;;;;;;20.98;12.85;;;12.50;99.90;;;;;;5114259;28;20047;-73
2022/06/28 00:32:05;;;;;;;17.50;13.68;;;12.50;99.90;;;;;;5114807;28;20047;-74
2022/06/28 00:34:32;;;;;;;17.17;12.93;;;12.40;99.90;;;;;;5114490;28;20495;-73
2022/06/28 00:36:59;;;;;;;18.45;13.25;;;12.40;99.90;;;;;;5133491;28;20506;-74
2022/06/28 00:39:26;;;;;;;19.33;13.68;;;12.40;99.90;;;;;;5133944;28;20044;-74
2022/06/28 00:41:53;;;;;;;18.38;13.95;;;12.40;99.90;;;;;;5114575;28;20062;-73
2022/06/28 00:44:21;;;;;;;19.95;13.98;;;12.40;99.90;;;;;;5133557;28;20051;-74
2022/06/28 00:46:50;;;;;;;16.58;12.65;;;12.30;99.90;;;;;;5133955;28;20107;-73
2022/06/28 00:49:17;;;;;;;17.70;12.73;;;12.30;99.90;;;;;;5133081;28;20402;-74
2022/06/28 00:51:44;;;;;;;17.05;13.32;;;12.30;99.90;;;;;;5133965;28;20062;-74
2022/06/28 00:54:11;;;;;;;18.67;12.57;;;12.30;99.90;;;;;;5115826;28;20104;-73
2022/06/28 00:56:37;;;;;;;20.05;14.32;;;12.20;99.90;;;;;;5114749;28;20406;-74
2022/06/28 00:59:04;;;;;;;16.42;13.25;;;12.30;99.90;;;;;;5115250;28;20051;-75
2022/06/28 01:01:31;;;;;;;19.38;12.85;;;12.20;99.90;;;;;;5133606;28;20043;-73
2022/06/28 01:04:00;;;;;;;18.17;13.40;;;12.20;99.90;;;;;;5133387;28;20058;-74
2022/06/28 01:06:27;;;;;;;19.52;15.60;;;12.20;99.90;;;;;;5133511;28;20051;-73
2022/06/28 01:08:54;;;;;;;18.52;13.70;;;12.20;99.90;;;;;;5114618;28;20055;-74
2022/06/28 01:11:21;;;;;;;17.73;13.60;;;12.20;99.90;;;;;;5133352;28;20039;-74
2022/06/28 01:13:50;;;;;;;18.65;12.90;;;12.20;99.90;;;;;;5115696;28;20047;-74
2022/06/28 01:16:17;;;;;;;15.82;12.25;;;12.20;99.90;;;;;;5132920;28;20054;-73
2022/06/28 01:18:44;;;;;;;18.77;12.82;;;12.10;99.90;;;;;;5133481;28;20093;-73
2022/06/28 01:21:14;;;;;;;17.08;13.35;;;12.10;99.90;;;;;;5133715;28;20055;-73
2022/06/28 01:23:43;;;;;;;19.20;13.60;;;12.10;99.90;;;;;;5132407;28;20495;-74
2022/06/28 01:26:11;;;;;;;15.00;12.40;;;12.10;99.90;;;;;;5114939;28;20567;-73
2022/06/28 01:28:39;;;;;;;17.30;12.77;;;12.10;99.90;;;;;;5115102;27;20047;-74
2022/06/28 01:31:06;;;;;;;16.30;12.15;;;12.10;99.90;;;;;;5118088;27;20051;-73
2022/06/28 01:33:36;;;;;;;17.02;13.05;;;12.10;99.90;;;;;;5138173;27;20203;-73
2022/06/28 01:36:04;;;;;;;17.77;12.15;;;12.10;99.90;;;;;;5118676;27;20047;-73
2022/06/28 01:38:31;;;;;;;14.82;11.60;;;12.10;99.90;;;;;;5149073;27;20117;-73
2022/06/28 01:41:00;;;;;;;16.17;12.55;;;12.10;99.90;;;;;;5135226;27;20127;-73
2022/06/28 01:43:27;;;;;;;15.32;11.73;;;12.10;99.90;;;;;;5137254;27;20051;-74
2022/06/28 01:45:55;;;;;;;15.95;12.00;;;12.10;99.90;;;;;;5118058;27;20073;-72
2022/06/28 01:48:22;;;;;;;17.27;11.35;;;12.10;99.90;;;;;;5119090;27;20391;-73
2022/06/28 01:50:52;;;;;;;13.75;11.10;;;12.10;99.90;;;;;;5118234;27;20092;-73
2022/06/28 01:53:19;;;;;;;13.43;10.48;;;12.00;99.90;;;;;;5118163;27;20047;-73
2022/06/28 01:55:46;;;;;;;14.95;11.25;;;12.00;99.90;;;;;;5117614;27;20448;-73
2022/06/28 01:58:15;;;;;;;13.00;10.30;;;12.00;99.90;;;;;;5117507;27;20227;-73
2022/06/28 02:00:42;;;;;;;17.25;10.50;;;12.00;99.90;;;;;;5118223;27;20043;-72
2022/06/28 02:03:09;;;;;;;14.90;11.45;;;12.00;99.90;;;;;;5135851;27;20051;-72
2022/06/28 02:05:36;;;;;;;14.10;10.48;;;12.00;99.90;;;;;;5135600;27;20095;-74
2022/06/28 02:08:03;;;;;;;11.95;9.68;;;11.90;99.90;;;;;;5118364;27;20050;-73
2022/06/28 02:10:30;;;;;;;14.77;11.10;;;11.90;99.90;;;;;;5118061;27;20046;-73
2022/06/28 02:12:57;;;;;;;14.95;9.98;;;11.90;99.90;;;;;;5117425;27;20047;-74
2022/06/28 02:15:25;;;;;;;14.95;10.05;;;11.80;99.90;;;;;;5118140;27;20055;-73
2022/06/28 02:17:52;;;;;;;13.02;10.60;;;11.80;99.90;;;;;;5117680;27;20055;-73
2022/06/28 02:20:19;;;;;;;15.05;10.80;;;11.80;99.90;;;;;;5117309;27;20422;-72
2022/06/28 02:22:46;;;;;;;17.48;10.45;;;11.80;99.90;;;;;;5117706;27;20055;-73
2022/06/28 02:25:13;;;;;;;17.70;11.60;;;11.70;99.90;;;;;;5135987;27;20051;-72
2022/06/28 02:27:40;;;;;;;14.25;10.32;;;11.80;99.90;;;;;;5117171;27;20047;-72
2022/06/28 02:30:08;;;;;;;12.63;10.02;;;11.80;99.90;;;;;;5136132;27;20050;-72
2022/06/28 02:32:36;;;;;;;15.15;11.27;;;11.80;99.90;;;;;;5135830;27;20047;-72
2022/06/28 02:40:44;;;;;;;15.02;10.27;;;11.70;99.90;;;;;;5090879;28;20048;-73
2022/06/28 02:43:11;;;;;;;15.73;10.02;;;11.70;99.90;;;;;;5125549;27;20051;-72
2022/06/28 02:45:39;;;;;;;13.80;10.05;;;11.70;99.90;;;;;;5135735;27;20051;-72
2022/06/28 02:48:08;;;;;;;14.85;10.80;;;11.60;99.90;;;;;;5116850;27;20051;-72
2022/06/28 02:50:36;;;;;;;22.85;9.65;;;11.60;99.90;;;;;;5116881;27;20103;-72
2022/06/28 02:53:02;;;;;;;17.63;10.25;;;11.60;99.90;;;;;;5135445;27;20043;-72
2022/06/28 02:55:29;;;;;;;14.55;9.77;;;11.60;99.90;;;;;;5134359;27;20047;-72
2022/06/28 02:57:56;;;;;;;18.02;10.43;;;11.60;99.90;;;;;;5117117;27;20055;-72
2022/06/28 03:00:23;;;;;;;16.25;10.88;;;11.60;99.90;;;;;;5135472;27;20203;-73
2022/06/28 03:02:50;;;;;;;14.18;10.02;;;11.60;99.90;;;;;;5134402;27;20058;-71
2022/06/28 03:05:22;;;;;;;13.27;10.48;;;11.50;99.90;;;;;;5145185;27;20095;-71
2022/06/28 03:07:49;;;;;;;13.18;10.18;;;11.50;99.90;;;;;;5136969;27;20169;-72
2022/06/28 03:10:18;;;;;;;16.23;10.85;;;11.50;99.90;;;;;;5155296;27;20042;-73
2022/06/28 03:12:45;;;;;;;17.95;11.07;;;11.50;99.90;;;;;;5137396;27;20474;-73
2022/06/28 03:15:13;;;;;;;13.23;10.30;;;11.50;99.90;;;;;;5155348;27;20046;-72
2022/06/28 03:17:41;;;;;;;19.58;11.38;;;11.50;99.90;;;;;;5137316;27;20402;-72
2022/06/28 03:20:08;;;;;;;14.75;10.27;;;11.50;99.90;;;;;;5126734;27;20055;-71
2022/06/28 03:22:37;;;;;;;14.80;10.57;;;11.50;99.90;;;;;;5126894;27;20063;-72
2022/06/28 03:25:04;;;;;;;21.42;11.63;;;11.40;99.90;;;;;;5116575;27;20083;-72
2022/06/28 03:27:31;;;;;;;14.75;9.82;;;11.40;99.90;;;;;;5116867;27;20429;-72
2022/06/28 03:29:58;;;;;;;16.95;10.52;;;11.50;99.90;;;;;;5133412;27;20047;-72
2022/06/28 03:32:25;;;;;;;16.98;11.85;;;11.50;99.90;;;;;;5135161;27;20047;-72
2022/06/28 03:34:52;;;;;;;14.50;10.15;;;11.50;99.90;;;;;;5122215;27;20051;-72
2022/06/28 03:37:19;;;;;;;15.15;11.18;;;11.50;99.90;;;;;;5135940;27;20046;-72
2022/06/28 03:39:47;;;;;;;20.25;11.77;;;11.50;99.90;;;;;;5136845;27;20043;-72
2022/06/28 03:42:14;;;;;;;17.08;12.35;;;11.50;99.90;;;;;;5155000;27;20605;-73
2022/06/28 03:44:41;;;;;;;19.42;11.18;;;11.60;99.90;;;;;;5153988;27;20054;-72
2022/06/28 03:47:08;;;;;;;17.17;11.32;;;11.60;99.90;;;;;;5155351;27;20051;-73
2022/06/28 03:49:35;;;;;;;21.88;11.05;;;11.60;99.90;;;;;;5155390;27;20396;-73
2022/06/28 03:52:02;;;;;;;10.93;7.15;;;11.70;99.90;;;;;;5129872;27;20043;-74
2022/06/28 03:54:29;;;;;;;14.13;10.10;;;12.20;99.90;;;;;;5122202;27;20047;-73
2022/06/28 03:56:57;;;;;;;12.88;8.18;;;12.20;99.90;;;;;;5146442;27;20091;-73
2022/06/28 03:59:24;;;;;;;32.70;10.63;;;12.50;99.90;;;;;;5126916;27;20059;-74
2022/06/28 04:01:51;;;;;;;12.50;8.52;;;12.70;99.90;;;;;;5148807;27;20046;-75
2022/06/28 04:04:18;;;;;;;12.23;8.70;;;12.90;99.90;;;;;;5145483;27;20583;-74
2022/06/28 04:06:45;;;;;;;11.30;6.72;;;12.90;99.90;;;;;;5144997;27;20047;-73
2022/06/28 04:09:12;;;;;;;11.70;8.55;;;13.10;99.90;;;;;;5146201;27;20375;-72
2022/06/28 04:11:39;;;;;;;13.27;8.70;;;13.30;99.90;;;;;;5147795;27;20035;-74
2022/06/28 04:14:07;;;;;;;10.38;6.55;;;13.30;99.90;;;;;;5124225;27;20100;-72
2022/06/28 04:16:34;;;;;;;12.45;8.23;;;13.20;99.90;;;;;;5144439;27;20395;-73
2022/06/28 04:19:01;;;;;;;15.65;8.82;;;13.20;99.90;;;;;;5141711;27;20059;-73
2022/06/28 04:21:28;;;;;;;11.13;7.38;;;13.00;99.90;;;;;;5151657;27;20046;-72
2022/06/28 04:23:54;;;;;;;14.93;8.27;;;13.20;99.90;;;;;;5145789;27;20050;-72
2022/06/28 04:26:21;;;;;;;15.02;8.02;;;13.30;99.90;;;;;;5128029;27;20047;-72
2022/06/28 04:28:48;;;;;;;13.60;7.85;;;13.30;99.90;;;;;;5151101;27;20440;-71
2022/06/28 04:31:16;;;;;;;8.98;5.82;;;13.40;99.90;;;;;;5145711;27;20039;-71
2022/06/28 04:33:44;;;;;;;10.25;7.15;;;13.40;99.90;;;;;;5126112;27;20479;-72
2022/06/28 04:36:11;;;;;;;12.25;7.65;;;13.20;99.90;;;;;;5125077;27;20047;-72
2022/06/28 04:38:38;;;;;;;9.07;6.25;;;13.00;99.90;;;;;;5148751;27;20043;-72
2022/06/28 04:41:05;;;;;;;11.45;7.88;;;13.10;99.90;;;;;;5113382;27;20055;-73
2022/06/28 04:43:31;;;;;;;12.65;8.40;;;13.10;99.90;;;;;;5132129;27;20512;-72
2022/06/28 04:45:59;;;;;;;11.60;7.72;;;13.00;99.90;;;;;;5114457;27;20154;-73
2022/06/28 04:48:27;;;;;;;13.10;8.25;;;12.80;99.90;;;;;;5113001;27;20509;-73
2022/06/28 04:50:54;;;;;;;12.55;7.45;;;12.80;99.90;;;;;;5113855;28;20127;-73
2022/06/28 04:53:21;;;;;;;10.27;7.60;;;12.80;99.90;;;;;;5151969;27;20050;-74
2022/06/28 04:55:48;;;;;;;13.60;8.13;;;12.80;99.90;;;;;;5117545;27;20103;-73
2022/06/28 04:58:14;;;;;;;12.18;8.65;;;12.90;99.90;;;;;;5132846;27;20494;-72
2022/06/28 05:00:41;;;;;;;10.35;7.75;;;12.90;99.90;;;;;;5113763;27;20050;-73
2022/06/28 05:03:08;;;;;;;16.60;8.60;;;13.00;99.90;;;;;;5145125;27;20046;-75
2022/06/28 05:05:36;;;;;;;10.48;7.65;;;13.10;99.90;;;;;;5132691;27;20043;-74
2022/06/28 05:08:03;;;;;;;13.98;7.25;;;13.30;99.90;;;;;;5147497;27;20051;-74
2022/06/28 05:10:30;;;;;;;14.52;6.72;;;13.40;99.90;;;;;;5149958;27;20038;-75
2022/06/28 05:12:57;;;;;;;17.08;7.80;;;13.60;99.90;;;;;;5133454;27;20236;-75
2022/06/28 05:15:24;;;;;;;14.98;7.00;;;13.70;99.90;;;;;;5148470;27;20046;-75
2022/06/28 05:17:51;;;;;;;13.00;6.70;;;13.70;99.90;;;;;;5132546;27;20054;-74
2022/06/28 05:20:18;;;;;;;14.35;7.30;;;13.90;99.90;;;;;;5132027;27;20054;-74
2022/06/28 05:22:46;;;;;;;10.20;6.07;;;14.00;99.90;;;;;;5129791;27;20043;-73
2022/06/28 05:25:13;;;;;;;12.40;7.03;;;14.20;99.90;;;;;;5132070;27;20051;-73
2022/06/28 05:27:40;;;;;;;11.50;6.55;;;14.40;99.90;;;;;;5154593;27;20091;-73
2022/06/28 05:30:08;;;;;;;9.57;6.22;;;14.60;99.90;;;;;;5148815;27;20050;-74
2022/06/28 05:32:35;;;;;;;6.93;5.43;;;14.80;99.90;;;;;;5126523;27;20043;-73
2022/06/28 05:35:02;;;;;;;13.98;6.72;;;15.00;99.90;;;;;;5126563;27;20047;-73
2022/06/28 05:37:29;;;;;;;12.02;6.30;;;15.10;99.90;;;;;;5153529;27;20042;-73
2022/06/28 05:39:57;;;;;;;12.85;5.07;;;15.30;99.90;;;;;;5150058;27;20042;-74
2022/06/28 05:42:24;;;;;;;9.70;5.13;;;15.50;99.90;;;;;;5130778;27;20095;-72
2022/06/28 05:44:51;;;;;;;8.65;5.00;;;15.60;99.90;;;;;;5130236;27;20046;-73
2022/06/28 05:47:18;;;;;;;8.02;4.88;;;15.80;99.90;;;;;;5129006;27;20107;-73
2022/06/28 05:49:44;;;;;;;8.73;5.30;;;15.90;99.90;;;;;;5131115;27;20074;-74
2022/06/28 05:52:11;;;;;;;12.35;4.95;;;16.00;99.90;;;;;;5135368;27;20046;-73
2022/06/28 05:54:38;;;;;;;9.57;4.85;;;16.10;99.90;;;;;;5158963;27;20047;-72
2022/06/28 05:57:07;;;;;;;8.68;4.95;;;16.20;99.90;;;;;;5155631;27;20375;-74
2022/06/28 05:59:33;;;;;;;7.88;4.60;;;16.30;99.90;;;;;;5148622;27;20047;-73
2022/06/28 06:02:00;;;;;;;13.85;4.32;;;16.40;99.90;;;;;;5153812;27;20042;-74
2022/06/28 06:04:27;;;;;;;7.28;4.30;;;16.50;99.90;;;;;;5132204;27;20050;-73
2022/06/28 06:06:55;;;;;;;10.25;4.70;;;16.60;99.90;;;;;;5130747;27;20043;-74
2022/06/28 06:09:22;;;;;;;9.35;4.68;;;16.80;99.90;;;;;;5135407;27;20133;-73
2022/06/28 06:11:49;;;;;;;7.72;4.25;;;17.00;99.90;;;;;;5130355;27;20122;-72
2022/06/28 06:14:18;;;;;;;9.18;4.50;;;17.20;99.90;;;;;;5130639;27;20047;-73
2022/06/28 06:16:45;;;;;;;10.27;4.55;;;17.20;99.90;;;;;;5129985;27;20507;-73
2022/06/28 06:19:12;;;;;;;14.32;4.40;;;17.30;99.90;;;;;;5133756;27;20046;-74
2022/06/28 06:21:39;;;;;;;8.73;4.22;;;17.40;99.90;;;;;;5149425;27;20050;-75
2022/06/28 06:24:06;;;;;;;9.45;4.57;;;17.50;99.90;;;;;;5151273;27;20500;-74
2022/06/28 06:26:34;;;;;;;8.35;3.85;;;17.60;99.90;;;;;;5134692;27;20119;-74
2022/06/28 06:29:01;;;;;;;8.23;4.55;;;17.70;99.90;;;;;;5150946;27;20047;-75
2022/06/28 06:31:29;;;;;;;7.40;3.97;;;17.80;99.90;;;;;;5147808;27;20127;-73
2022/06/28 06:33:56;;;;;;;7.53;3.88;;;17.90;99.90;;;;;;5128361;27;20099;-74
2022/06/28 06:36:23;;;;;;;10.95;3.85;;;18.00;99.90;;;;;;5146596;27;20479;-74
2022/06/28 06:38:50;;;;;;;18.88;3.53;;;18.20;99.90;;;;;;5116139;27;20074;-73
2022/06/28 06:41:17;;;;;;;9.60;3.53;;;18.30;99.90;;;;;;5116512;27;20563;-73
2022/06/28 06:43:44;;;;;;;9.00;3.35;;;18.50;99.90;;;;;;5134350;27;20440;-74
2022/06/28 06:46:11;;;;;;;7.82;3.30;;;18.60;99.90;;;;;;5135225;27;20104;-72
2022/06/28 06:48:39;;;;;;;8.35;3.72;;;18.70;99.90;;;;;;5125916;27;20104;-74
2022/06/28 06:51:06;;;;;;;7.72;3.40;;;18.90;99.90;;;;;;5135687;27;20051;-74
2022/06/28 06:53:33;;;;;;;10.13;3.92;;;19.10;99.90;;;;;;5134977;27;20099;-74
2022/06/28 06:56:00;;;;;;;9.95;3.15;;;19.20;99.90;;;;;;5117172;27;20108;-73
2022/06/28 06:58:27;;;;;;;5.97;3.13;;;19.50;99.90;;;;;;5117015;27;20092;-73
2022/06/28 07:00:55;;;;;;;8.63;3.40;;;20.00;99.90;;;;;;5134212;27;20047;-72
2022/06/28 07:03:22;;;;;;;7.18;3.05;;;20.10;99.90;;;;;;5117553;27;20092;-74
2022/06/28 07:05:50;;;;;;;6.90;2.78;;;20.10;99.90;;;;;;5135085;27;20047;-74
2022/06/28 07:08:17;;;;;;;7.93;2.95;;;20.40;99.90;;;;;;5134677;27;20096;-75
2022/06/28 07:10:44;;;;;;;5.95;2.50;;;20.60;99.90;;;;;;5116954;27;20054;-75
2022/06/28 07:13:11;;;;;;;8.45;3.08;;;20.70;99.90;;;;;;5126921;27;20445;-75
2022/06/28 07:15:37;;;;;;;7.18;3.33;;;20.70;99.90;;;;;;5133708;27;20091;-74
2022/06/28 07:18:05;;;;;;;8.05;3.22;;;20.80;99.90;;;;;;5155900;27;20047;-75
2022/06/28 07:20:31;;;;;;;13.20;3.25;;;21.10;99.90;;;;;;5137453;27;20084;-75
2022/06/28 07:23:00;;;;;;;8.35;2.80;;;21.50;99.90;;;;;;5155059;27;20091;-74
2022/06/28 07:25:27;;;;;;;7.10;2.95;;;21.60;99.90;;;;;;5155273;27;20107;-75
2022/06/28 07:27:54;;;;;;;8.57;2.75;;;22.10;99.90;;;;;;5137071;27;20107;-74
2022/06/28 07:30:21;;;;;;;6.20;2.53;;;22.50;99.90;;;;;;5132275;27;20451;-75
2022/06/28 07:32:48;;;;;;;6.20;2.65;;;22.40;99.90;;;;;;5134994;27;20088;-75
2022/06/28 07:35:17;;;;;;;8.80;2.13;;;22.20;99.90;;;;;;5134875;27;20047;-75
2022/06/28 07:37:46;;;;;;;5.25;1.80;;;22.10;99.90;;;;;;5133970;27;20083;-76
2022/06/28 07:40:15;;;;;;;5.75;2.30;;;22.50;99.90;;;;;;5116604;27;20139;-75
2022/06/28 07:42:41;;;;;;;8.30;2.30;;;22.90;99.90;;;;;;5115306;27;20085;-75
2022/06/28 07:45:09;;;;;;;5.57;1.73;;;23.40;99.90;;;;;;5131096;27;20067;-74
2022/06/28 07:47:36;;;;;;;5.18;2.10;;;23.60;99.90;;;;;;5116363;27;20061;-75
2022/06/28 07:52:48;;;;;;;5.10;1.70;;;24.10;99.90;;;;;;5116206;27;20143;-76
2022/06/28 07:55:16;;;;;;;4.78;1.58;;;24.20;99.90;;;;;;5120980;27;20058;-73
2022/06/28 07:57:43;;;;;;;7.82;1.85;;;24.20;99.90;;;;;;5133323;27;20042;-74
2022/06/28 08:00:11;;;;;;;6.15;1.88;;;24.40;99.90;;;;;;5129984;27;20047;-75
2022/06/28 08:02:38;;;;;;;5.40;1.80;;;24.80;99.90;;;;;;5132756;27;20047;-75
2022/06/28 08:05:05;;;;;;;6.85;1.80;;;25.00;99.90;;;;;;5132424;27;20517;-75
2022/06/28 08:07:32;;;;;;;6.72;1.70;;;25.20;99.90;;;;;;5147865;27;20138;-75
2022/06/28 08:09:59;;;;;;;8.60;2.58;;;25.30;99.90;;;;;;5116327;27;20065;-77
2022/06/28 08:12:28;;;;;;;5.50;1.60;;;25.40;99.90;;;;;;5122095;27;20050;-76
2022/06/28 08:14:54;;;;;;;5.28;2.17;;;25.50;99.90;;;;;;5143832;27;20043;-76
2022/06/28 08:17:23;;;;;;;5.15;1.60;;;25.70;99.20;;;;;;5134711;27;20054;-76
2022/06/28 08:19:50;;;;;;;7.13;1.70;;;25.70;98.40;;;;;;5133020;27;20046;-76
2022/06/28 08:22:20;;;;;;;7.25;1.85;;;25.90;97.90;;;;;;5114993;27;20039;-77
2022/06/28 08:24:47;;;;;;;;;;;26.00;96.60;;;;;;5133969;27;20402;-76
2022/06/28 08:27:14;;;;;;;7.93;1.88;;;26.00;92.80;;;;;;5114635;27;19955;-76
2022/06/28 08:29:43;;;;;;;6.95;1.38;;;26.00;95.60;;;;;;5139738;27;20054;-75
2022/06/28 08:32:11;;;;;;;7.43;1.60;;;26.10;93.40;;;;;;5115005;27;20047;-76
2022/06/28 08:34:38;;;;;;;4.28;1.67;;;26.20;94.10;;;;;;5137649;27;20107;-76
2022/06/28 08:37:06;;;;;;;6.63;1.63;;;26.40;94.10;;;;;;5131993;28;20494;-77
2022/06/28 08:39:34;;;;;;;4.20;1.02;;;26.60;93.80;;;;;;5125133;27;20498;-77
2022/06/28 08:42:03;;;;;;;6.00;1.77;;;26.80;93.30;;;;;;5143151;27;20494;-77
2022/06/28 08:44:32;;;;;;;;;;;26.40;92.30;;;;;;5134059;27;20498;-77
2022/06/28 08:47:01;;;;;;;6.03;1.92;;;25.40;91.80;;;;;;5157683;27;19919;-77
2022/06/28 08:49:36;;;;;;;6.82;1.58;;;24.90;93.90;;;;;;5144615;27;20047;-76
2022/06/28 08:52:04;;;;;;;7.63;1.67;;;24.40;93.40;;;;;;5148080;27;20047;-76
2022/06/28 08:54:31;;;;;;;6.25;2.00;;;24.00;94.40;;;;;;5124460;27;20104;-76
2022/06/28 08:56:59;;;;;;;5.47;1.80;;;24.20;94.60;;;;;;5125073;27;20103;-77
2022/06/28 08:59:27;;;;;;;5.63;1.65;;;24.80;94.30;;;;;;5118921;27;20051;-77
2022/06/28 09:01:54;;;;;;;5.25;1.40;;;25.40;94.00;;;;;;5122048;27;20055;-77
2022/06/28 09:04:22;;;;;;;6.40;1.40;;;26.00;93.10;;;;;;5122239;27;20107;-76
2022/06/28 09:06:49;;;;;;;4.97;1.42;;;26.40;91.40;;;;;;5127022;27;20055;-76
2022/06/28 09:09:16;;;;;;;5.10;1.60;;;26.50;90.90;;;;;;5123059;27;20046;-76
2022/06/28 09:11:45;;;;;;;5.80;1.38;;;26.40;90.80;;;;;;5122405;27;20552;-76
2022/06/28 09:14:24;;;;;;;5.60;1.30;;;26.60;89.80;;;;;;5154655;27;20062;-76
2022/06/28 09:16:51;;;;;;;5.80;1.35;;;27.10;87.50;;;;;;5137566;27;20104;-76
2022/06/28 09:19:32;;;;;;;5.68;1.70;;;27.30;87.20;;;;;;5141245;27;20138;-76
2022/06/28 09:22:03;;;;;;;5.53;1.23;;;27.30;85.90;;;;;;5151309;27;20526;-76
2022/06/28 09:24:30;;;;;;;5.00;1.40;;;27.60;84.90;;;;;;5124580;27;20047;-77
2022/06/28 09:27:03;;;;;;;6.38;1.48;;;27.10;84.90;;;;;;5125808;27;20575;-76
2022/06/28 09:29:31;;;;;;;9.65;1.92;;;26.60;85.30;;;;;;5124192;27;20085;-77
2022/06/28 09:31:58;;;;;;;4.53;1.40;;;26.00;86.40;;;;;;5118173;27;20047;-76
2022/06/28 09:34:27;;;;;;;6.63;1.60;;;25.50;87.90;;;;;;5144194;27;20047;-77
2022/06/28 09:36:58;;;;;;;6.40;1.58;;;25.10;88.10;;;;;;5122688;27;20046;-76
2022/06/28 09:39:29;;;;;;;6.30;1.80;;;24.60;89.30;;;;;;5127106;27;20575;-76
2022/06/28 09:41:57;;;;;;;7.28;1.65;;;24.20;90.00;;;;;;5124901;27;20055;-76
2022/06/28 09:44:27;;;;;;;7.93;1.70;;;24.00;90.70;;;;;;5146797;27;20042;-75
2022/06/28 09:46:57;;;;;;;8.82;1.80;;;23.80;91.20;;;;;;5158797;27;20125;-76
2022/06/28 09:49:28;;;;;;;6.40;1.70;;;23.80;91.10;;;;;;5134513;27;20054;-76
2022/06/28 09:51:58;;;;;;;5.70;1.95;;;24.30;90.80;;;;;;5131541;27;20039;-76
2022/06/28 09:54:26;;;;;;;7.38;1.63;;;24.90;90.50;;;;;;5148531;27;20122;-77
2022/06/28 09:56:55;;;;;;;7.40;1.77;;;25.40;90.40;;;;;;5122025;27;20049;-75
2022/06/28 09:59:23;;;;;;;7.93;1.40;;;26.00;90.00;;;;;;5146250;27;20057;-75
2022/06/28 10:01:52;;;;;;;3.90;1.15;;;26.60;89.50;;;;;;5155739;27;20100;-76
2022/06/28 10:04:20;;;;;;;3.65;1.30;;;27.00;86.40;;;;;;5143866;27;20127;-76
2022/06/28 10:06:47;;;;;;;7.32;1.80;;;27.30;82.70;;;;;;5121292;27;20053;-77
2022/06/28 10:09:14;;;;;;;6.30;1.60;;;27.60;81.30;;;;;;5140003;27;20058;-75
2022/06/28 10:17:28;;;;;;;6.25;1.70;;;27.80;81.00;;;;;;5119498;27;20047;-75
2022/06/28 10:19:58;;;;;;;8.63;2.10;;;27.80;78.90;;;;;;5120633;27;20126;-75
2022/06/28 10:22:25;;;;;;;4.07;1.42;;;27.80;80.60;;;;;;5135698;27;20059;-74
2022/06/28 10:24:54;;;;;;;7.07;1.48;;;28.20;80.60;;;;;;5141090;27;20494;-75
2022/06/28 10:27:22;;;;;;;5.18;1.70;;;28.20;79.80;;;;;;5134323;27;20047;-75
2022/06/28 10:30:25;;;;;;;10.45;1.77;;;27.90;80.00;;;;;;5135800;27;20046;-74
2022/06/28 10:32:55;;;;;;;3.90;1.40;;;27.30;78.90;;;;;;5134191;27;20047;-76
2022/06/28 10:35:40;;;;;;;;;;;27.30;79.80;;;;;;5153605;27;20138;-76
2022/06/28 10:38:17;;;;;;;5.47;1.70;;;27.50;78.50;;;;;;5128394;27;20354;-76
2022/06/28 10:40:49;;;;;;;4.65;1.80;;;27.90;77.60;;;;;;5139807;27;20034;-76
2022/06/28 10:43:16;;;;;;;6.40;1.77;;;27.60;76.50;;;;;;5126491;27;20104;-75
2022/06/28 10:46:09;;;;;;;5.85;1.65;;;27.80;77.30;;;;;;5150068;27;20050;-75
2022/06/28 10:49:01;;;;;;;9.05;1.58;;;28.50;74.20;;;;;;5122944;27;20091;-74
2022/06/28 10:51:28;;;;;;;6.05;1.75;;;28.80;72.70;;;;;;5134175;27;20447;-76
2022/06/28 10:54:06;;;;;;;4.60;1.58;;;28.50;74.70;;;;;;5140834;27;20046;-75
2022/06/28 10:56:37;;;;;;;5.53;1.60;;;28.40;73.30;;;;;;5131613;27;20057;-75
2022/06/28 10:59:06;;;;;;;8.63;2.22;;;27.80;73.00;;;;;;5122978;27;20078;-75
2022/06/28 11:01:58;;;;;;;6.30;1.70;;;27.20;75.50;;;;;;5132247;27;20046;-75
2022/06/28 11:04:31;;;;;;;4.22;1.60;;;26.60;77.00;;;;;;5100424;27;20055;-75
2022/06/28 11:07:01;;;;;;;7.38;1.90;;;26.00;77.10;;;;;;5133142;27;20157;-76
2022/06/28 11:09:48;;;;;;;7.53;2.10;;;25.80;78.10;;;;;;5117248;27;20074;-75
2022/06/28 11:12:16;;;;;;;5.78;1.60;;;25.60;78.90;;;;;;5125003;27;20058;-75
2022/06/28 11:14:52;;;;;;;4.60;1.77;;;25.60;79.10;;;;;;5129327;27;20483;-75
2022/06/28 11:17:26;;;;;;;4.68;1.85;;;26.30;78.70;;;;;;5117182;27;20047;-75
2022/06/28 11:19:55;;;;;;;9.07;2.22;;;27.10;78.20;;;;;;5137036;27;20050;-75
2022/06/28 11:22:25;;;;;;;7.07;1.80;;;27.10;76.90;;;;;;5133033;27;20051;-75
2022/06/28 11:24:53;;;;;;;8.00;1.90;;;26.60;77.80;;;;;;5142434;27;20096;-75
2022/06/28 11:27:22;;;;;;;6.72;1.83;;;26.30;78.10;;;;;;5128140;27;20499;-75
2022/06/28 11:29:53;;;;;;;5.60;1.92;;;26.70;79.40;;;;;;5134394;27;20039;-75
2022/06/28 11:32:24;;;;;;;5.30;1.75;;;27.20;77.80;;;;;;5128562;27;20107;-72
2022/06/28 11:34:58;;;;;;;7.30;1.75;;;27.90;77.10;;;;;;5143844;27;20035;-74
2022/06/28 11:37:26;;;;;;;5.55;1.85;;;28.20;75.80;;;;;;5131046;27;20047;-76
2022/06/28 11:39:54;;;;;;;6.00;1.40;;;28.70;75.30;;;;;;5146684;27;20556;-75
2022/06/28 11:42:22;;;;;;;8.32;1.52;;;28.90;74.30;;;;;;5122013;27;20051;-74
2022/06/28 11:44:50;;;;;;;5.13;1.55;;;28.50;73.10;;;;;;5127885;27;20066;-73
2022/06/28 11:47:18;;;;;;;4.22;1.50;;;28.70;73.10;;;;;;5125081;27;20051;-74
2022/06/28 11:49:51;;;;;;;4.53;1.35;;;28.90;72.60;;;;;;5127289;27;20123;-74
2022/06/28 11:52:18;;;;;;;5.65;1.60;;;29.30;68.80;;;;;;5124796;27;20104;-73
2022/06/28 11:54:53;;;;;;;8.85;2.00;;;29.50;70.10;;;;;;5125331;27;20072;-74
2022/06/28 11:57:20;;;;;;;3.80;1.40;;;29.10;69.90;;;;;;5124885;27;20043;-73
2022/06/28 11:59:58;;;;;;;5.82;1.90;;;29.20;69.70;;;;;;5130466;27;20088;-73
2022/06/28 12:02:43;;;;;;;10.65;2.00;;;29.30;69.80;;;;;;5121843;27;20051;-74
2022/06/28 12:05:12;;;;;;;5.30;1.48;;;29.60;70.00;;;;;;5124412;27;20054;-76
2022/06/28 12:07:43;;;;;;;4.37;1.20;;;29.90;69.70;;;;;;5124113;27;20047;-76
2022/06/28 12:10:23;;;;;;;6.65;1.95;;;29.70;68.20;;;;;;5124841;27;20309;-76
2022/06/28 12:12:51;;;;;;;4.90;1.35;;;29.60;66.80;;;;;;5127196;27;20047;-75
2022/06/28 12:15:31;;;;;;;4.30;1.45;;;29.00;67.80;;;;;;5122186;27;20130;-76
2022/06/28 12:18:02;;;;;;;3.13;1.30;;;28.60;66.70;;;;;;5131527;27;20057;-76
2022/06/28 12:20:32;;;;;;;5.05;1.42;;;28.00;67.60;;;;;;5129006;27;20100;-76
2022/06/28 12:23:00;;;;;;;5.43;1.17;;;28.10;67.40;;;;;;5127337;27;20053;-76
2022/06/28 12:25:27;;;;;;;7.97;1.90;;;27.90;67.10;;;;;;5127902;27;20569;-76
2022/06/28 12:27:55;;;;;;;3.75;1.08;;;27.60;68.00;;;;;;5124477;28;20047;-76
2022/06/28 12:30:22;;;;;;;6.63;1.23;;;27.60;68.70;;;;;;5128552;28;20039;-76
2022/06/28 12:32:52;;;;;;;6.70;1.35;;;28.30;68.60;;;;;;5124726;28;20051;-75
2022/06/28 12:35:19;;;;;;;4.55;1.40;;;28.20;69.20;;;;;;5125318;28;20448;-76
2022/06/28 12:37:47;;;;;;;9.82;2.15;;;28.00;69.10;;;;;;5129031;28;20143;-76
2022/06/28 12:40:15;;;;;;;31.00;4.55;;;27.70;69.80;;;;;;5124578;28;20138;-77
2022/06/28 12:42:44;;;;;;;3.75;1.73;;;27.80;70.20;;;;;;5121549;28;20075;-76
2022/06/28 12:45:12;;;;;;;4.10;1.40;;;28.40;69.70;;;;;;5124949;28;20403;-75
2022/06/28 12:47:42;;;;;;;4.47;1.08;;;28.50;69.30;;;;;;5128848;28;20040;-75
2022/06/28 12:50:15;;;;;;;7.35;1.90;;;28.30;68.20;;;;;;5126303;27;20051;-76
2022/06/28 12:52:46;;;;;;;6.20;1.17;;;28.90;66.90;;;;;;5127281;28;20046;-75
2022/06/28 12:55:14;;;;;;;3.88;1.20;;;29.30;66.40;;;;;;5126514;28;20040;-75
2022/06/28 12:57:44;;;;;;;10.48;1.27;;;29.00;66.30;;;;;;5127331;28;20043;-76
2022/06/28 13:00:13;;;;;;;5.80;1.63;;;28.70;66.50;;;;;;5126744;28;20039;-75
2022/06/28 13:02:40;;;;;;;3.60;1.30;;;28.30;66.70;;;;;;5130577;28;20436;-76
2022/06/28 13:05:09;;;;;;;4.15;1.20;;;28.20;66.90;;;;;;5124245;28;20085;-76